Dubois, WY

5:28 PM MST on January 20, 2017 (GMT -0700)
Dubois Muni, Dubois, WY

Weather History for KDUB - December, 2013

Change the Weather History Date:

Thursday, December 26, 2013

  Actual Average (KJAC) Record (KJAC)
Temperature  
Mean Temperature 35 °F -  
Max Temperature 42 °F 23 °F 42 °F (1980)
Min Temperature 28 °F -1 °F -26 °F (1990)
Degree Days  
Heating Degree Days 30    
Moisture  
Dew Point 17 °F    
Average Humidity 51    
Maximum Humidity 60    
Minimum Humidity 41    
Precipitation  
Precipitation 0.00 in - - ()
Sea Level Pressure  
Sea Level Pressure 30.27 in    
Wind  
Wind Speed 16 mph (NW)    
Max Wind Speed 28 mph    
Max Gust Speed 38 mph    
Visibility 10 miles    
Events      
Averages and records for this station are not official NWS values.
T = Trace of Precipitation, MM = Missing Value Source: NWS Daily Summary

Daily Weather History Graph

Daily Weather History Graph

Search for Another Location

Airport or City:

Trip Planner

Search our weather history database for the weather conditions in past years. The results will help you decide how hot, cold, wet, or windy it might be!

Date:

Astronomy

Dec. 26, 2013 Rise Set
Actual Time 7:50 AM MST 4:48 PM MST
Civil Twilight 7:18 AM MST 5:21 PM MST
Nautical Twilight 6:41 AM MST 5:57 PM MST
Astronomical Twilight 6:07 AM MST 6:32 PM MST
Moon 1:14 AM MST (12/26) 12:32 PM MST (12/26)
Length of Visible Light 10h 02m
Length of Day
8h 57m
Last Quarter, 38% of the Moon is Illuminated
Dec 26
Last Quarter
Jan 1
New
Jan 7
First Quarter
Jan 15
Full
Jan 23
Last Quarter

Hourly Weather History & Observations

Time (MST) Temp. Windchill Dew Point Humidity Pressure Visibility Wind Dir Wind Speed Gust Speed Precip Events Conditions
12:15 AM 28.4 °F 14.1 °F 8.6 °F 43% 30.22 in 10.0 mi NNW 24.2 mph 29.9 mph N/A   Clear
12:35 AM 28.4 °F 15.1 °F 8.6 °F 43% 30.22 in 10.0 mi NNW 20.7 mph 27.6 mph N/A   Clear
12:50 AM 28.4 °F 14.7 °F 8.6 °F 43% 30.23 in 10.0 mi NW 21.9 mph 31.1 mph N/A   Clear
1:15 AM 32.0 °F 18.9 °F 10.4 °F 41% 30.23 in 10.0 mi WNW 24.2 mph 38.0 mph N/A   Clear
1:35 AM 32.0 °F 18.6 °F 10.4 °F 41% 30.23 in 10.0 mi WNW 25.3 mph 33.4 mph N/A   Clear
1:55 AM 32.0 °F 19.5 °F 10.4 °F 41% 30.23 in 10.0 mi WNW 21.9 mph 31.1 mph N/A   Clear
2:15 AM 32.0 °F 18.1 °F 12.2 °F 44% 30.24 in 10.0 mi WNW 27.6 mph 34.5 mph N/A   Clear
2:35 AM 32.0 °F 19.8 °F 12.2 °F 44% 30.27 in 10.0 mi WNW 20.7 mph 33.4 mph N/A   Clear
2:55 AM 28.4 °F 24.6 °F 10.4 °F 47% 30.29 in 10.0 mi NNW 3.5 mph - N/A   Clear
3:15 AM 28.4 °F 20.4 °F 10.4 °F 47% 30.28 in 10.0 mi North 8.1 mph - N/A   Scattered Clouds
3:35 AM 28.4 °F 21.2 °F 12.2 °F 51% 30.29 in 10.0 mi NNW 6.9 mph - N/A   Clear
3:55 AM 28.4 °F 21.2 °F 12.2 °F 51% 30.28 in 10.0 mi North 6.9 mph - N/A   Clear
4:15 AM 30.2 °F 23.4 °F 14.0 °F 51% 30.28 in 10.0 mi North 6.9 mph 18.4 mph N/A   Clear
4:35 AM 28.4 °F 18.0 °F 12.2 °F 51% 30.28 in 10.0 mi NNW 12.7 mph - N/A   Scattered Clouds
4:55 AM 32.0 °F 19.8 °F 14.0 °F 48% 30.27 in 10.0 mi West 20.7 mph 29.9 mph N/A   Mostly Cloudy
5:15 AM 32.0 °F 19.8 °F 14.0 °F 48% 30.27 in 10.0 mi West 20.7 mph 27.6 mph N/A   Mostly Cloudy
5:35 AM 32.0 °F 20.5 °F 14.0 °F 48% 30.26 in 10.0 mi WNW 18.4 mph 23.0 mph N/A   Scattered Clouds
5:55 AM 28.4 °F 18.0 °F 14.0 °F 55% 30.28 in 10.0 mi NNW 12.7 mph - N/A   Scattered Clouds
6:15 AM 28.4 °F 19.7 °F 14.0 °F 55% 30.28 in 10.0 mi NNW 9.2 mph - N/A   Scattered Clouds
6:35 AM 28.4 °F 19.1 °F 14.0 °F 55% 30.29 in 10.0 mi NNW 10.4 mph - N/A   Scattered Clouds
6:55 AM 30.2 °F 22.6 °F 14.0 °F 51% 30.29 in 10.0 mi North 8.1 mph - N/A   Mostly Cloudy
7:15 AM 30.2 °F 23.4 °F 14.0 °F 51% 30.28 in 10.0 mi North 6.9 mph - N/A   Overcast
7:35 AM 30.2 °F 25.4 °F 14.0 °F 51% 30.29 in 10.0 mi North 4.6 mph - N/A   Overcast
7:55 AM 30.2 °F 23.4 °F 15.8 °F 55% 30.29 in 10.0 mi NW 6.9 mph - N/A   Overcast
8:15 AM 32.0 °F 25.6 °F 17.6 °F 55% 30.29 in 10.0 mi NW 6.9 mph - N/A   Overcast
8:35 AM 32.0 °F 25.6 °F 17.6 °F 55% 30.30 in 10.0 mi NNW 6.9 mph - N/A   Overcast
8:55 AM 32.0 °F 26.4 °F 19.4 °F 60% 30.31 in 10.0 mi NNW 5.8 mph - N/A   Overcast
9:15 AM 33.8 °F 24.3 °F 19.4 °F 56% 30.30 in 10.0 mi NW 13.8 mph - N/A   Overcast
9:35 AM 35.6 °F 26.2 °F 19.4 °F 52% 30.30 in 10.0 mi NW 15.0 mph 19.6 mph N/A   Overcast
9:55 AM 35.6 °F 28.0 °F 19.4 °F 52% 30.31 in 10.0 mi NNW 10.4 mph - N/A   Overcast
10:15 AM 35.6 °F 25.9 °F 19.4 °F 52% 30.30 in 10.0 mi North 16.1 mph - N/A   Mostly Cloudy
10:35 AM 35.6 °F 27.1 °F 19.4 °F 52% 30.30 in 10.0 mi NNW 12.7 mph 23.0 mph N/A   Scattered Clouds
10:55 AM 37.4 °F 29.3 °F 21.2 °F 52% 30.30 in 10.0 mi NW 12.7 mph 23.0 mph N/A   Scattered Clouds
11:15 AM 39.2 °F 29.8 °F 21.2 °F 49% 30.29 in 10.0 mi WNW 18.4 mph 31.1 mph N/A   Clear
11:35 AM 39.2 °F 29.6 °F 21.2 °F 49% 30.28 in 10.0 mi WNW 19.6 mph 25.3 mph N/A   Clear
11:55 AM 41.0 °F 31.9 °F 19.4 °F 42% 30.27 in 10.0 mi WNW 19.6 mph 28.8 mph N/A   Clear
12:15 PM 41.0 °F 33.9 °F 21.2 °F 45% 30.26 in 10.0 mi NW 12.7 mph 25.3 mph N/A   Clear
12:35 PM 42.8 °F 36.6 °F 21.2 °F 42% 30.26 in 10.0 mi NW 11.5 mph 18.4 mph N/A   Scattered Clouds
12:55 PM 41.0 °F 32.5 °F 21.2 °F 45% 30.26 in 10.0 mi WNW 17.3 mph 27.6 mph N/A   Clear
1:15 PM 41.0 °F 32.8 °F 21.2 °F 45% 30.25 in 10.0 mi WNW 16.1 mph 28.8 mph N/A   Clear
1:35 PM 41.0 °F 31.9 °F 21.2 °F 45% 30.24 in 10.0 mi WNW 19.6 mph 27.6 mph N/A   Clear
1:55 PM 42.8 °F 34.5 °F 21.2 °F 42% 30.24 in 10.0 mi WNW 18.4 mph 25.3 mph N/A   Clear
2:15 PM 41.0 °F 31.9 °F 21.2 °F 45% 30.24 in 10.0 mi WNW 19.6 mph 36.8 mph N/A   Clear
2:35 PM 41.0 °F 33.5 °F 21.2 °F 45% 30.24 in 10.0 mi NW 13.8 mph 27.6 mph N/A   Clear
2:55 PM 41.0 °F 32.8 °F 21.2 °F 45% 30.24 in 10.0 mi WNW 16.1 mph - N/A   Clear
3:15 PM 41.0 °F 32.5 °F 21.2 °F 45% 30.24 in 10.0 mi NW 17.3 mph 27.6 mph N/A   Clear
3:35 PM 39.2 °F 32.0 °F 21.2 °F 49% 30.25 in 10.0 mi NW 11.5 mph - N/A   Clear
3:55 PM 37.4 °F 28.9 °F 21.2 °F 52% 30.25 in 10.0 mi NW 13.8 mph 25.3 mph N/A   Clear
4:15 PM 35.6 °F 27.5 °F 21.2 °F 56% 30.25 in 10.0 mi NW 11.5 mph 16.1 mph N/A   Clear
4:35 PM 33.8 °F 26.4 °F 19.4 °F 56% 30.26 in 10.0 mi NNW 9.2 mph - N/A   Clear
4:55 PM 32.0 °F 25.6 °F 19.4 °F 60% 30.26 in 10.0 mi NNW 6.9 mph - N/A   Clear
5:15 PM 32.0 °F 25.6 °F 19.4 °F 60% 30.26 in 10.0 mi NNW 6.9 mph - N/A   Clear
5:35 PM 32.0 °F 23.0 °F 19.4 °F 60% 30.26 in 10.0 mi NNW 11.5 mph - N/A   Clear
5:55 PM 32.0 °F 24.2 °F 19.4 °F 60% 30.26 in 10.0 mi NNW 9.2 mph - N/A   Clear
6:15 PM 32.0 °F 24.8 °F 19.4 °F 60% 30.26 in 10.0 mi NW 8.1 mph - N/A   Clear
6:35 PM 32.0 °F 24.2 °F 19.4 °F 60% 30.26 in 10.0 mi NW 9.2 mph - N/A   Clear
6:55 PM 32.0 °F 23.0 °F 17.6 °F 55% 30.26 in 10.0 mi NW 11.5 mph - N/A   Clear
7:15 PM 32.0 °F 23.6 °F 17.6 °F 55% 30.26 in 10.0 mi North 10.4 mph - N/A   Clear
7:30 PM 32.0 °F 26.4 °F 17.6 °F 55% 30.27 in 10.0 mi NNW 5.8 mph - N/A   Clear
7:55 PM 32.0 °F 23.6 °F 17.6 °F 55% 30.26 in 10.0 mi NNW 10.4 mph - N/A   Clear
8:15 PM 32.0 °F 22.5 °F 17.6 °F 55% 30.26 in 10.0 mi NNW 12.7 mph - N/A   Clear
8:35 PM 32.0 °F 23.0 °F 15.8 °F 51% 30.27 in 10.0 mi NNW 11.5 mph 21.9 mph N/A   Clear
8:55 PM 32.0 °F 21.2 °F 15.8 °F 51% 30.28 in 10.0 mi North 16.1 mph 24.2 mph N/A   Mostly Cloudy
9:15 PM 32.0 °F 23.0 °F 15.8 °F 51% 30.28 in 10.0 mi NW 11.5 mph 18.4 mph N/A   Overcast
9:35 PM 32.0 °F 21.6 °F 15.8 °F 51% 30.28 in 10.0 mi NNW 15.0 mph - N/A   Overcast
9:55 PM 32.0 °F 22.5 °F 15.8 °F 51% 30.28 in 10.0 mi WNW 12.7 mph - N/A   Mostly Cloudy
10:15 PM 32.0 °F 21.6 °F 15.8 °F 51% 30.28 in 10.0 mi NNW 15.0 mph - N/A   Scattered Clouds
10:30 PM 30.2 °F 20.8 °F 15.8 °F 55% 30.28 in 10.0 mi WNW 11.5 mph - N/A   Clear
10:55 PM 32.0 °F 22.1 °F 15.8 °F 51% 30.28 in 10.0 mi NW 13.8 mph 19.6 mph N/A   Clear
11:15 PM 32.0 °F 21.6 °F 15.8 °F 51% 30.29 in 10.0 mi NW 15.0 mph - N/A   Clear
11:35 PM 30.2 °F 19.8 °F 15.8 °F 55% 30.29 in 10.0 mi WNW 13.8 mph 17.3 mph N/A   Clear
11:55 PM 28.4 °F 18.0 °F 15.8 °F 59% 30.29 in 10.0 mi WNW 12.7 mph - N/A   Clear